Latest Weather Observations for Mackay Airport

IDQ60801

Issued at 9:02 am EST Sunday 28 May 2017 (issued every 30 minutes, with the page automatically refreshed every 10 minutes)

About weather observations | Map of weather stations | Latest weather observations for QLD | Other Formats
Station Details ID: 033045 Name: MACKAY AERO Lat: -21.17 Lon: 149.18 Height: 4.7 m
Data from the previous 72 hours. | See also: Recent months at Mackay Airport
Date/Time
EST
Temp
°C
App
Temp
°C
Dew
Point
°C
Rel
Hum
%
Delta-T
°C
Wind Press
QNH
hPa
Press
MSL
hPa
Rain since
9am
mm
Dir  Spd
km/h
Gust
km/h
Spd
kts
Gust
kts
28/08:30am 19.9 21.3 18.7 93 0.7 SW 9 13 5 7 1018.0 1018.0 0.0
28/08:00am 18.5 19.7 18.2 98 0.2 WSW 9 11 5 6 1017.9 1017.9 0.0
28/07:30am 17.4 18.6 17.4 100 0.0 WSW 7 9 4 5 1017.8 1017.8 0.0
28/07:00am 15.9 16.7 15.9 100 0.0 WSW 6 9 3 5 1017.6 1017.6 0.0
28/06:30am 15.9 16.5 15.9 100 0.0 WSW 7 9 4 5 1017.4 1017.4 0.0
28/06:00am 16.1 16.4 16.1 100 0.0 WSW 9 11 5 6 1017.2 1017.2 0.0
28/05:30am 16.2 16.5 16.0 99 0.1 WSW 9 11 5 6 1017.0 1017.0 0.0
28/05:00am 16.3 17.0 16.1 99 0.1 WSW 7 11 4 6 1016.9 1016.9 0.0
28/04:30am 16.8 17.7 16.6 99 0.1 WSW 7 9 4 5 1017.1 1017.1 0.0
28/04:00am 17.2 18.3 17.0 99 0.1 WSW 7 9 4 5 1017.1 1017.1 0.0
28/03:30am 17.4 18.1 17.1 98 0.2 WSW 9 9 5 5 1017.2 1017.2 0.0
28/03:00am 17.9 18.9 17.7 99 0.1 WSW 9 13 5 7 1017.4 1017.4 0.0
28/02:30am 17.4 18.2 17.2 99 0.1 WSW 9 11 5 6 1017.7 1017.7 0.0
28/02:00am 17.4 18.2 17.4 100 0.0 WSW 9 11 5 6 1017.9 1017.9 0.0
28/01:30am 17.4 18.5 17.2 99 0.1 WSW 7 9 4 5 1018.2 1018.2 0.0
28/01:00am 17.1 17.7 16.9 99 0.1 WSW 9 11 5 6 1018.3 1018.3 0.0
28/12:30am 17.7 18.6 17.5 99 0.1 WSW 9 13 5 7 1018.5 1018.5 0.0
28/12:00am 17.8 18.4 17.6 99 0.1 WSW 11 11 6 6 1018.7 1018.7 0.0
 
Date/Time
EST
Temp
°C
App
Temp
°C
Dew
Point
°C
Rel
Hum
%
Delta-T
°C
Wind Press
QNH
hPa
Press
MSL
hPa
Rain since
9am
mm
Dir  Spd
km/h
Gust
km/h
Spd
kts
Gust
kts
27/11:30pm 17.5 18.3 17.2 98 0.2 SW 9 11 5 6 1018.5 1018.5 0.0
27/11:00pm 17.9 18.8 17.6 98 0.2 SSW 9 11 5 6 1018.7 1018.7 0.0
27/10:30pm 18.1 19.1 17.8 98 0.2 SSW 9 11 5 6 1018.8 1018.8 0.0
27/10:00pm 18.1 18.7 17.8 98 0.2 SW 11 13 6 7 1018.8 1018.8 0.0
27/09:30pm 18.5 19.2 18.0 97 0.3 SW 11 11 6 6 1018.8 1018.8 0.0
27/09:00pm 18.9 19.6 17.9 94 0.6 SSW 11 13 6 7 1018.8 1018.8 0.0
27/08:30pm 20.2 21.8 18.3 89 1.2 SE 7 11 4 6 1018.6 1018.6 0.0
27/08:00pm 21.6 22.4 19.0 85 1.6 SE 13 17 7 9 1018.4 1018.4 0.0
27/07:30pm 21.9 22.4 19.3 85 1.7 ESE 15 17 8 9 1018.2 1018.2 0.0
27/07:00pm 22.0 22.7 19.7 87 1.5 ESE 15 20 8 11 1017.8 1017.8 0.0
27/06:30pm 22.1 22.0 19.5 85 1.7 ESE 19 22 10 12 1017.4 1017.4 0.0
27/06:00pm 22.4 22.8 19.8 85 1.7 ESE 17 22 9 12 1017.3 1017.3 0.0
27/05:30pm 22.6 22.3 19.6 83 1.9 SE 20 24 11 13 1016.9 1016.9 0.0
27/05:00pm 23.0 23.1 20.3 85 1.7 SE 20 30 11 16 1016.7 1016.7 0.0
27/04:30pm 23.4 23.0 20.2 82 2.1 SE 22 28 12 15 1016.4 1016.4 0.0
27/04:00pm 23.8 23.7 20.7 83 2.0 SE 22 30 12 16 1016.3 1016.3 0.0
27/03:30pm 24.0 23.6 20.1 79 2.5 SE 22 28 12 15 1016.2 1016.2 0.0
27/03:00pm 24.5 24.3 20.6 79 2.5 SE 22 28 12 15 1016.2 1016.2 0.0
27/02:30pm 24.9 24.4 20.8 78 2.7 SE 24 28 13 15 1016.2 1016.2 0.0
27/02:00pm 24.7 24.1 20.4 77 2.8 SE 24 30 13 16 1016.4 1016.4 0.0
27/01:30pm 24.5 23.7 20.0 76 2.9 SE 24 28 13 15 1016.7 1016.7 0.0
27/01:00pm 24.7 24.1 20.4 77 2.8 SE 24 28 13 15 1017.1 1017.1 0.0
27/12:30pm 24.9 24.3 20.6 77 2.8 SE 24 30 13 16 1017.6 1017.6 0.0
27/12:00pm 24.7 24.1 20.6 78 2.7 SE 24 30 13 16 1018.0 1018.0 0.0
27/11:30am 25.0 24.8 21.3 80 2.4 SE 24 28 13 15 1018.2 1018.2 0.0
27/11:00am 24.4 24.2 20.5 79 2.5 SE 22 30 12 16 1018.5 1018.5 0.0
27/10:30am 24.0 24.4 20.7 82 2.2 SE 19 22 10 12 1019.0 1019.0 0.0
27/10:00am 23.2 24.4 20.0 82 2.1 SE 13 19 7 10 1019.2 1019.2 0.0
27/09:30am 21.8 23.0 19.9 89 1.2 S 13 17 7 9 1019.3 1019.3 0.0
27/09:00am 20.5 21.8 19.3 93 0.8 SW 11 15 6 8 1019.1 1019.1 0.2
27/08:30am 19.1 20.5 17.8 92 0.8 WSW 7 11 4 6 1018.9 1018.9 0.2
27/08:00am 17.9 18.5 16.8 93 0.7 WSW 9 13 5 7 1018.8 1018.8 0.2
27/07:30am 16.1 16.2 15.6 97 0.3 W 9 11 5 6 1018.7 1018.7 0.2
27/07:00am 15.3 15.2 15.0 98 0.2 W 9 13 5 7 1018.5 1018.5 0.2
27/06:30am 15.1 14.9 14.8 98 0.2 WSW 9 13 5 7 1018.1 1018.1 0.2
27/06:00am 14.8 14.5 14.5 98 0.2 WSW 9 11 5 6 1017.7 1017.7 0.2
27/05:30am 14.8 14.5 14.5 98 0.2 W 9 11 5 6 1017.5 1017.5 0.2
27/05:00am 15.2 15.4 14.7 97 0.3 W 7 11 4 6 1017.3 1017.3 0.2
27/04:30am 15.3 15.2 15.0 98 0.2 WSW 9 11 5 6 1017.3 1017.3 0.0
27/04:00am 15.2 15.1 14.9 98 0.2 WSW 9 11 5 6 1017.4 1017.4 0.0
27/03:30am 14.9 15.1 14.6 98 0.2 WSW 7 9 4 5 1017.4 1017.4 0.0
27/03:00am 14.7 14.8 14.5 99 0.1 WSW 7 11 4 6 1017.4 1017.4 0.0
27/02:30am 14.8 14.2 14.6 99 0.1 WSW 11 11 6 6 1017.5 1017.5 0.0
27/02:00am 15.0 15.4 14.7 98 0.2 WSW 6 7 3 4 1017.7 1017.7 0.0
27/01:30am 15.1 14.9 14.6 97 0.3 WSW 9 11 5 6 1017.9 1017.9 0.0
27/01:00am 15.5 15.0 15.0 97 0.3 WSW 11 13 6 7 1018.1 1018.1 0.0
27/12:30am 15.7 15.4 15.4 98 0.2 WSW 11 13 6 7 1018.1 1018.1 0.0
27/12:00am 15.6 15.2 15.3 98 0.2 WSW 11 13 6 7 1018.0 1018.0 0.0
 
Date/Time
EST
Temp
°C
App
Temp
°C
Dew
Point
°C
Rel
Hum
%
Delta-T
°C
Wind Press
QNH
hPa
Press
MSL
hPa
Rain since
9am
mm
Dir  Spd
km/h
Gust
km/h
Spd
kts
Gust
kts
26/11:30pm 15.4 15.0 15.1 98 0.2 SW 11 13 6 7 1018.3 1018.3 0.0
26/11:00pm 15.7 15.7 15.2 97 0.3 SW 9 11 5 6 1018.5 1018.5 0.0
26/10:30pm 16.6 17.4 16.3 98 0.2 SW 7 9 4 5 1018.7 1018.7 0.0
26/10:00pm 16.3 16.5 15.8 97 0.3 SW 9 11 5 6 1018.6 1018.6 0.0
26/09:30pm 17.2 17.1 16.9 98 0.2 SW 13 15 7 8 1018.8 1018.8 0.0
26/09:00pm 17.1 17.2 16.6 97 0.3 SSW 11 13 6 7 1018.8 1018.8 0.0
26/08:30pm 17.7 18.0 17.1 96 0.4 SSW 11 13 6 7 1018.8 1018.8 0.0
26/08:00pm 18.8 19.7 18.3 97 0.3 SSW 11 13 6 7 1018.4 1018.4 0.0
26/07:30pm 18.4 19.0 17.6 95 0.5 SSW 11 11 6 6 1018.1 1018.1 0.0
26/07:00pm 19.5 20.6 18.0 91 0.9 S 9 11 5 6 1017.7 1017.7 0.0
26/06:30pm 21.2 22.7 19.8 92 0.9 SSE 11 13 6 7 1017.2 1017.2 0.0
26/06:00pm 21.5 22.7 19.8 90 1.1 SE 13 17 7 9 1016.9 1016.9 0.0
26/05:30pm 22.0 22.4 19.0 83 1.9 ESE 15 19 8 10 1016.8 1016.8 0.0
26/05:00pm 22.8 23.2 19.8 83 1.9 SE 17 20 9 11 1016.6 1016.6 0.0
26/04:30pm 23.4 23.9 20.0 81 2.2 ESE 17 20 9 11 1016.5 1016.5 0.0
26/04:00pm 23.8 24.4 20.3 81 2.3 ESE 17 20 9 11 1016.5 1016.5 0.0
26/03:30pm 24.4 24.7 20.5 79 2.5 SE 19 26 10 14 1016.4 1016.4 0.0
26/03:00pm 24.4 24.6 20.1 77 2.8 SE 19 24 10 13 1016.5 1016.5 0.0
26/02:30pm 24.3 24.0 19.6 75 3.0 SE 20 24 11 13 1016.6 1016.6 0.0
26/02:00pm 24.8 24.6 19.8 74 3.2 SE 20 24 11 13 1016.7 1016.7 0.0
26/01:30pm 24.9 25.2 20.8 78 2.7 SE 20 26 11 14 1016.9 1016.9 0.0
26/01:00pm 24.3 24.1 19.8 76 2.9 SE 20 26 11 14 1017.1 1017.1 0.0
26/12:30pm 24.6 24.6 20.9 80 2.4 SE 22 28 12 15 1017.6 1017.6 0.0
26/12:00pm 24.2 24.1 20.7 81 2.3 SE 22 28 12 15 1018.0 1018.0 0.0
26/11:30am 24.6 24.4 21.3 82 2.2 SE 24 28 13 15 1018.4 1018.4 0.0
26/11:00am 24.1 23.7 20.2 79 2.5 SE 22 28 12 15 1018.7 1018.7 0.0
26/10:30am 24.2 23.7 20.7 81 2.3 SE 24 28 13 15 1018.9 1018.9 0.0
26/10:00am 23.8 24.1 20.7 83 2.0 SE 20 26 11 14 1019.2 1019.2 0.0
26/09:41am 23.5 24.0 20.8 85 1.8 SE 19 24 10 13 1019.2 1019.2 0.0
26/09:30am 23.1 24.0 20.8 87 1.5 SE 17 22 9 12 1019.2 1019.2 0.0
26/09:19am 22.3 23.5 20.0 87 1.5 SSE 13 19 7 10 1019.2 1019.2 0.0
26/09:00am 21.8 23.7 19.7 88 1.3 S 9 15 5 8 1019.1 1019.1 0.0
26/08:30am 20.3 22.0 19.3 94 0.6 SSW 9 15 5 8 1018.7 1018.7 0.0
26/08:00am 17.8 18.4 16.8 94 0.6 SW 9 11 5 6 1018.5 1018.5 0.0
26/07:30am 16.1 16.5 15.3 95 0.5 W 7 9 4 5 1018.4 1018.4 0.0
26/07:00am 14.8 15.1 14.5 98 0.2 W 6 6 3 3 1018.1 1018.1 0.0
26/06:30am 14.5 13.8 14.3 99 0.1 W 11 13 6 7 1017.6 1017.6 0.0
26/06:00am 13.9 13.7 13.7 99 0.1 W 7 9 4 5 1017.2 1017.2 0.0
26/05:30am 13.8 13.6 13.5 98 0.2 W 7 9 4 5 1016.9 1016.9 0.0
26/05:00am 14.0 13.5 13.7 98 0.2 W 9 9 5 5 1016.6 1016.6 0.0
26/04:30am 15.0 14.8 14.8 99 0.1 W 9 13 5 7 1016.4 1016.4 0.0
26/04:00am 14.0 13.5 13.8 99 0.1 W 9 11 5 6 1016.4 1016.4 0.0
26/03:30am 14.3 14.3 14.1 99 0.1 W 7 9 4 5 1016.4 1016.4 0.0
26/03:00am 14.3 13.9 14.0 98 0.2 W 9 11 5 6 1016.5 1016.5 0.0
26/02:30am 14.9 15.2 14.6 98 0.2 W 6 9 3 5 1016.8 1016.8 0.0
26/02:00am 15.1 14.9 14.8 98 0.2 W 9 9 5 5 1016.9 1016.9 0.0
26/01:30am 15.5 15.5 15.3 99 0.1 W 9 11 5 6 1017.2 1017.2 0.0
26/01:00am 15.4 15.4 15.1 98 0.2 W 9 13 5 7 1017.5 1017.5 0.0
26/12:30am 15.5 15.5 15.3 99 0.1 WSW 9 11 5 6 1017.8 1017.8 0.0
26/12:00am 15.3 15.1 14.8 97 0.3 WSW 9 11 5 6 1018.0 1018.0 0.0
 
Date/Time
EST
Temp
°C
App
Temp
°C
Dew
Point
°C
Rel
Hum
%
Delta-T
°C
Wind Press
QNH
hPa
Press
MSL
hPa
Rain since
9am
mm
Dir  Spd
km/h
Gust
km/h
Spd
kts
Gust
kts
25/11:30pm 16.5 17.2 16.2 98 0.2 W 7 9 4 5 1018.1 1018.1 0.0
25/11:00pm 16.4 17.0 15.9 97 0.3 W 7 11 4 6 1018.2 1018.2 0.0
25/10:30pm 16.7 17.7 16.4 98 0.2 ENE 6 9 3 5 1018.4 1018.4 0.0
25/10:00pm 17.1 17.7 16.8 98 0.2 ENE 9 11 5 6 1018.3 1018.3 0.0
25/09:30pm 17.1 17.6 16.5 96 0.4 ENE 9 13 5 7 1018.3 1018.3 0.0
25/09:00pm 18.3 19.8 18.0 98 0.2 ENE 7 7 4 4 1018.2 1018.2 0.0
25/08:30pm 18.5 19.6 18.0 97 0.3 ENE 9 11 5 6 1018.2 1018.2 0.0
25/08:00pm 18.9 20.6 18.4 97 0.3 ENE 7 7 4 4 1018.0 1018.0 0.0
25/07:30pm 19.4 21.6 18.4 94 0.6 ENE 4 7 2 4 1017.7 1017.7 0.0
25/07:00pm 20.4 23.7 19.2 93 0.8 CALM 0 0 0 0 1017.3 1017.3 0.0
25/06:30pm 20.9 23.5 19.2 90 1.1 E 4 7 2 4 1017.0 1017.0 0.0
25/06:00pm 21.3 23.4 18.9 86 1.5 E 6 7 3 4 1016.9 1016.9 0.0
25/05:30pm 22.3 23.7 18.7 80 2.3 ENE 9 9 5 5 1016.7 1016.7 0.0
25/05:00pm 23.5 23.6 18.4 73 3.2 ENE 15 17 8 9 1016.5 1016.5 0.0
25/04:30pm 24.1 24.0 17.8 68 3.9 E 15 17 8 9 1016.4 1016.4 0.0
25/04:00pm 24.6 24.8 18.5 69 3.9 E 15 17 8 9 1016.1 1016.1 0.0
25/03:30pm 25.2 25.4 18.6 67 4.2 ESE 15 20 8 11 1016.1 1016.1 0.0
25/03:00pm 24.9 24.8 18.8 69 3.9 ESE 17 20 9 11 1016.1 1016.1 0.0
25/02:30pm 24.9 25.3 19.1 70 3.7 ESE 15 19 8 10 1016.3 1016.3 0.0
25/02:00pm 24.9 25.2 18.8 69 3.9 ESE 15 20 8 11 1016.5 1016.5 0.0
25/01:30pm 25.1 24.9 18.5 67 4.2 ESE 17 20 9 11 1016.9 1016.9 0.0
25/01:00pm 25.3 25.2 18.7 67 4.2 ESE 17 22 9 12 1017.3 1017.3 0.0
25/12:30pm 25.0 24.5 18.7 68 4.0 ESE 19 22 10 12 1017.7 1017.7 0.0
25/12:00pm 25.3 24.5 18.5 66 4.3 ESE 20 24 11 13 1018.1 1018.1 0.0
25/11:30am 24.5 24.5 18.0 67 4.1 ESE 15 22 8 12 1018.3 1018.3 0.0
25/11:00am 25.1 24.4 16.5 59 5.3 ESE 15 19 8 10 1018.5 1018.5 0.0
25/10:30am 25.2 25.0 14.6 51 6.3 SSE 9 13 5 7 1018.6 1018.6 0.0
25/10:00am 23.8 24.7 16.6 64 4.4 SSW 7 11 4 6 1018.6 1018.6 0.0
25/09:30am 22.3 23.7 17.7 75 2.9 WSW 7 9 4 5 1018.8 1018.8 0.0

Other Formats:

Comma delimited format used in spreadsheet applications
http://www.bom.gov.au/fwo/IDQ60801/IDQ60801.95367.axf

JavaScript Object Notation format (JSON) in row-major order
http://www.bom.gov.au/fwo/IDQ60801/IDQ60801.95367.json